Time;durP1;ratioP1;P1;durP2;ratioP2;P2;SDS_P1;SDS_P2;PMS_P1;PMS_P2;Temp;Humidity;BMP_temperature;BMP_pressure;BME280_temperature;BME280_humidity;BME280_pressure;Samples;Min_cycle;Max_cycle;Signal;HPM_P1;HPM_P2
2024/02/26 00:03:42;;;;;;;8.63;2.60;;;;;;;;;;10378412;28;20057;-58
2024/02/26 00:08:42;;;;;;;5.80;3.08;;;;;;;;;;10371814;28;20025;-58
2024/02/26 00:13:43;;;;;;;6.55;2.55;;;;;;;;;;10373253;28;20026;-60
2024/02/26 00:18:43;;;;;;;11.48;3.13;;;;;;;;;;10372115;28;20392;-59
2024/02/26 00:23:44;;;;;;;5.78;2.63;;;;;;;;;;10370633;28;20473;-59
2024/02/26 00:28:44;;;;;;;10.77;2.65;;;;;;;;;;10372270;28;20029;-59
2024/02/26 00:33:45;;;;;;;6.55;2.70;;;;;;;;;;10371591;28;20029;-59
2024/02/26 00:38:50;;;;;;;5.30;2.55;;;;;;;;;;10372099;28;20034;-59
2024/02/26 00:43:51;;;;;;;8.25;2.72;;;;;;;;;;10371481;28;20040;-59
2024/02/26 00:48:51;;;;;;;7.80;3.03;;;;;;;;;;10370720;28;20037;-59
2024/02/26 00:53:52;;;;;;;9.60;2.70;;;;;;;;;;10370502;28;20045;-59
2024/02/26 00:58:52;;;;;;;3.30;2.35;;;;;;;;;;10370298;28;20046;-59
2024/02/26 01:03:53;;;;;;;3.85;2.20;;;;;;;;;;10369444;28;20107;-59
2024/02/26 01:08:53;;;;;;;2.83;2.17;;;;;;;;;;10370044;28;20026;-58
2024/02/26 01:13:56;;;;;;;6.32;2.50;;;;;;;;;;10370079;28;20084;-60
2024/02/26 01:18:56;;;;;;;5.03;2.47;;;;;;;;;;10369237;28;20421;-59
2024/02/26 01:23:57;;;;;;;4.18;2.78;;;;;;;;;;10369144;28;20034;-59
2024/02/26 01:28:58;;;;;;;4.15;2.40;;;;;;;;;;10370131;28;20026;-59
2024/02/26 01:33:58;;;;;;;7.03;2.20;;;;;;;;;;10369281;28;20030;-59
2024/02/26 01:38:59;;;;;;;4.13;2.22;;;;;;;;;;10369427;28;20065;-59
2024/02/26 01:43:59;;;;;;;5.22;2.33;;;;;;;;;;10369291;28;20044;-59
2024/02/26 01:49:03;;;;;;;2.90;2.10;;;;;;;;;;10368803;28;20029;-59
2024/02/26 01:54:03;;;;;;;5.70;2.65;;;;;;;;;;10368012;28;20030;-59
2024/02/26 01:59:05;;;;;;;4.13;2.10;;;;;;;;;;10368314;28;20597;-59
2024/02/26 02:04:06;;;;;;;4.97;2.17;;;;;;;;;;10367792;28;20430;-62
2024/02/26 02:09:08;;;;;;;5.20;2.17;;;;;;;;;;10368511;28;20050;-59
2024/02/26 02:14:09;;;;;;;3.67;2.20;;;;;;;;;;10368378;28;20068;-59
2024/02/26 02:19:09;;;;;;;3.35;2.20;;;;;;;;;;10367439;28;20033;-58
2024/02/26 02:24:10;;;;;;;4.22;2.35;;;;;;;;;;10367066;28;20034;-60
2024/02/26 02:29:12;;;;;;;3.80;2.00;;;;;;;;;;10366648;28;20485;-59
2024/02/26 02:34:13;;;;;;;3.80;2.05;;;;;;;;;;10365643;28;20037;-59
2024/02/26 02:39:15;;;;;;;3.75;2.20;;;;;;;;;;10367108;28;20439;-59
2024/02/26 02:44:16;;;;;;;3.90;2.13;;;;;;;;;;10366848;28;20109;-58
2024/02/26 02:49:17;;;;;;;3.90;2.22;;;;;;;;;;10367379;28;20030;-59
2024/02/26 02:54:17;;;;;;;2.85;1.90;;;;;;;;;;10367037;28;20022;-59
2024/02/26 02:59:18;;;;;;;3.15;2.20;;;;;;;;;;10366817;28;20493;-60
2024/02/26 03:04:18;;;;;;;3.45;2.05;;;;;;;;;;10366465;28;20052;-59
2024/02/26 03:09:19;;;;;;;3.03;2.10;;;;;;;;;;10366202;28;20044;-59
2024/02/26 03:14:20;;;;;;;4.22;2.30;;;;;;;;;;10366010;28;20037;-59
2024/02/26 03:19:20;;;;;;;6.30;2.30;;;;;;;;;;10366780;28;20026;-59
2024/02/26 03:24:21;;;;;;;4.57;2.45;;;;;;;;;;10366488;28;20413;-58
2024/02/26 03:29:22;;;;;;;3.50;2.38;;;;;;;;;;10366096;28;20552;-59
2024/02/26 03:34:23;;;;;;;2.78;2.05;;;;;;;;;;10366451;28;20448;-58
2024/02/26 03:39:23;;;;;;;2.28;1.75;;;;;;;;;;10365756;28;20026;-58
2024/02/26 03:44:24;;;;;;;5.75;1.77;;;;;;;;;;10372732;28;20022;-58
2024/02/26 03:49:24;;;;;;;3.90;2.10;;;;;;;;;;10372907;28;20022;-58
2024/02/26 03:54:25;;;;;;;2.35;1.92;;;;;;;;;;10373436;28;20026;-58
2024/02/26 03:59:26;;;;;;;3.28;1.90;;;;;;;;;;10373356;28;20029;-58
2024/02/26 04:04:27;;;;;;;3.90;2.20;;;;;;;;;;10372794;28;20053;-60
2024/02/26 04:09:27;;;;;;;3.63;2.03;;;;;;;;;;10372419;28;20052;-58
2024/02/26 04:14:28;;;;;;;3.85;2.30;;;;;;;;;;10372459;28;20432;-58
2024/02/26 04:19:28;;;;;;;4.07;2.30;;;;;;;;;;10372711;28;20520;-60
2024/02/26 04:24:29;;;;;;;2.70;1.80;;;;;;;;;;10372045;28;20473;-58
2024/02/26 04:29:29;;;;;;;2.95;2.00;;;;;;;;;;10371572;28;20532;-59
2024/02/26 04:34:30;;;;;;;3.65;2.00;;;;;;;;;;10371362;28;20517;-59
2024/02/26 04:39:30;;;;;;;2.03;1.80;;;;;;;;;;10371392;28;20474;-55
2024/02/26 04:44:31;;;;;;;3.15;1.75;;;;;;;;;;10370850;28;20030;-57
2024/02/26 04:49:32;;;;;;;4.05;2.10;;;;;;;;;;10370890;28;20466;-57
2024/02/26 04:54:32;;;;;;;3.03;1.88;;;;;;;;;;10370031;28;20072;-58
2024/02/26 04:59:33;;;;;;;4.78;2.03;;;;;;;;;;10370486;28;20037;-58
2024/02/26 05:04:33;;;;;;;2.92;1.80;;;;;;;;;;10370280;28;20057;-59
2024/02/26 05:09:34;;;;;;;2.40;2.20;;;;;;;;;;10370119;28;20092;-59
2024/02/26 05:14:35;;;;;;;3.38;1.85;;;;;;;;;;10369925;28;20112;-59
2024/02/26 05:19:35;;;;;;;7.50;1.77;;;;;;;;;;10370442;28;20030;-59
2024/02/26 05:24:38;;;;;;;1.90;1.70;;;;;;;;;;10369489;28;20022;-59
2024/02/26 05:29:39;;;;;;;1.85;1.70;;;;;;;;;;10369825;28;20037;-59
2024/02/26 05:34:41;;;;;;;2.47;1.75;;;;;;;;;;10368950;28;20044;-59
2024/02/26 05:39:41;;;;;;;3.55;1.83;;;;;;;;;;10369219;28;20036;-59
2024/02/26 05:44:42;;;;;;;1.63;1.52;;;;;;;;;;10368592;28;20050;-60
2024/02/26 05:49:43;;;;;;;2.28;1.90;;;;;;;;;;10369033;28;20406;-59
2024/02/26 05:54:43;;;;;;;1.98;1.75;;;;;;;;;;10369027;28;20387;-59
2024/02/26 05:59:44;;;;;;;2.08;1.88;;;;;;;;;;10368644;28;20412;-60
2024/02/26 06:04:46;;;;;;;2.25;1.70;;;;;;;;;;10366858;28;20398;-59
2024/02/26 06:09:48;;;;;;;5.45;2.03;;;;;;;;;;10368024;28;20072;-59
2024/02/26 06:14:49;;;;;;;1.45;1.35;;;;;;;;;;10368231;28;20109;-61
2024/02/26 06:19:49;;;;;;;2.20;1.73;;;;;;;;;;10368595;28;20108;-62
2024/02/26 06:24:50;;;;;;;5.25;1.88;;;;;;;;;;10367116;28;20033;-63
2024/02/26 06:29:50;;;;;;;4.13;1.98;;;;;;;;;;10367845;28;20566;-66
2024/02/26 06:34:51;;;;;;;2.40;2.00;;;;;;;;;;10367161;28;20211;-68
2024/02/26 06:39:52;;;;;;;2.22;1.80;;;;;;;;;;10367510;28;20037;-67
2024/02/26 06:44:52;;;;;;;3.10;1.52;;;;;;;;;;10366678;28;20037;-67
2024/02/26 06:49:53;;;;;;;2.15;1.70;;;;;;;;;;10367222;28;20033;-66
2024/02/26 06:54:54;;;;;;;2.50;1.45;;;;;;;;;;10366062;28;20037;-65
2024/02/26 06:59:54;;;;;;;12.35;2.22;;;;;;;;;;10366245;28;20022;-61
2024/02/26 07:04:56;;;;;;;3.22;1.85;;;;;;;;;;10366252;28;20065;-59
2024/02/26 07:09:56;;;;;;;2.50;2.03;;;;;;;;;;10366815;28;20083;-60
2024/02/26 07:14:58;;;;;;;2.10;1.88;;;;;;;;;;10367572;28;20544;-60
2024/02/26 07:19:58;;;;;;;12.90;2.22;;;;;;;;;;10373972;28;20385;-61
2024/02/26 07:24:59;;;;;;;5.82;2.35;;;;;;;;;;10373057;28;20029;-61
2024/02/26 07:29:59;;;;;;;9.77;2.85;;;;;;;;;;10373856;28;20205;-61
2024/02/26 07:35:00;;;;;;;7.97;2.40;;;;;;;;;;10373469;28;20025;-61
2024/02/26 07:40:01;;;;;;;3.83;2.28;;;;;;;;;;10373263;28;20026;-61
2024/02/26 07:45:02;;;;;;;4.22;2.13;;;;;;;;;;10373324;28;20113;-61
2024/02/26 07:50:03;;;;;;;5.60;2.70;;;;;;;;;;10373458;28;20085;-62
2024/02/26 07:55:04;;;;;;;6.57;2.42;;;;;;;;;;10373771;28;20107;-61
2024/02/26 08:00:09;;;;;;;4.15;2.40;;;;;;;;;;10372549;28;20220;-62
2024/02/26 08:05:09;;;;;;;7.15;2.17;;;;;;;;;;10372045;28;20128;-61
2024/02/26 08:10:13;;;;;;;7.70;2.47;;;;;;;;;;10372691;28;20092;-61
2024/02/26 08:15:13;;;;;;;4.22;2.40;;;;;;;;;;10372618;28;20269;-61
2024/02/26 08:20:14;;;;;;;3.97;2.40;;;;;;;;;;10373134;28;20399;-61
2024/02/26 08:25:16;;;;;;;6.50;2.50;;;;;;;;;;10371209;28;20493;-61
2024/02/26 08:30:17;;;;;;;3.58;2.33;;;;;;;;;;10371050;28;20428;-61
2024/02/26 08:35:17;;;;;;;3.47;2.40;;;;;;;;;;10371539;28;20088;-61
2024/02/26 08:40:19;;;;;;;6.13;2.17;;;;;;;;;;10371451;28;20018;-61
2024/02/26 08:45:20;;;;;;;3.03;2.28;;;;;;;;;;10371777;28;20041;-62
2024/02/26 08:50:21;;;;;;;8.15;2.70;;;;;;;;;;10370522;28;20052;-64
2024/02/26 08:55:21;;;;;;;4.50;2.30;;;;;;;;;;10370306;28;20084;-62
2024/02/26 09:00:22;;;;;;;3.08;2.47;;;;;;;;;;10370254;28;20044;-63
2024/02/26 09:05:22;;;;;;;6.65;2.95;;;;;;;;;;10369649;28;20042;-61
2024/02/26 09:10:23;;;;;;;4.25;2.30;;;;;;;;;;10370280;28;20022;-62
2024/02/26 09:15:24;;;;;;;2.92;2.17;;;;;;;;;;10370015;28;20022;-62
2024/02/26 09:20:24;;;;;;;5.82;2.40;;;;;;;;;;10369954;28;20030;-62
2024/02/26 09:25:25;;;;;;;2.35;2.05;;;;;;;;;;10369851;28;20037;-61
2024/02/26 09:30:25;;;;;;;2.58;2.03;;;;;;;;;;10369728;28;20057;-61
2024/02/26 09:35:26;;;;;;;3.05;2.40;;;;;;;;;;10369011;28;20022;-61
2024/02/26 09:40:27;;;;;;;3.13;2.10;;;;;;;;;;10368917;28;20030;-61
2024/02/26 09:45:31;;;;;;;5.57;2.17;;;;;;;;;;10367693;28;20029;-61
2024/02/26 09:50:31;;;;;;;3.03;2.00;;;;;;;;;;10367834;28;20033;-61
2024/02/26 09:55:32;;;;;;;2.72;2.22;;;;;;;;;;10368636;28;20480;-62
2024/02/26 10:00:37;;;;;;;2.60;2.03;;;;;;;;;;10368769;28;20036;-62
2024/02/26 10:05:40;;;;;;;2.25;2.05;;;;;;;;;;10367626;28;20057;-61
2024/02/26 10:10:41;;;;;;;2.53;1.83;;;;;;;;;;10366981;28;20026;-61
2024/02/26 10:15:42;;;;;;;2.58;2.03;;;;;;;;;;10366276;28;20105;-61
2024/02/26 10:20:42;;;;;;;4.05;2.05;;;;;;;;;;10368251;28;20037;-61
2024/02/26 10:25:55;;;;;;;7.28;2.88;;;;;;;;;;10366566;28;20084;-61
2024/02/26 10:30:56;;;;;;;2.55;2.30;;;;;;;;;;10367921;28;20442;-61
2024/02/26 10:35:57;;;;;;;4.53;2.10;;;;;;;;;;10367533;28;20033;-61
2024/02/26 10:40:57;;;;;;;3.63;2.03;;;;;;;;;;10366817;28;20107;-61
2024/02/26 10:45:58;;;;;;;2.28;1.98;;;;;;;;;;10367105;28;20029;-61
2024/02/26 10:50:59;;;;;;;4.60;2.30;;;;;;;;;;10366497;28;20033;-61
2024/02/26 10:56:07;;;;;;;2.40;2.17;;;;;;;;;;10366894;28;20038;-61
2024/02/26 11:01:09;;;;;;;2.97;2.08;;;;;;;;;;10366962;28;20034;-62
2024/02/26 11:06:12;;;;;;;4.20;1.90;;;;;;;;;;10365094;28;20046;-61
2024/02/26 11:11:15;;;;;;;3.55;2.30;;;;;;;;;;10365901;28;20033;-61
2024/02/26 11:16:38;;;;;;;6.32;2.70;;;;;;;;;;10365411;28;20033;-61
2024/02/26 11:21:43;;;;;;;5.93;2.22;;;;;;;;;;10319266;28;20085;-61
2024/02/26 11:26:55;;;;;;;2.17;1.70;;;;;;;;;;10319324;28;20046;-61
2024/02/26 11:31:58;;;;;;;4.70;2.60;;;;;;;;;;10319185;28;20461;-61
2024/02/26 11:37:10;;;;;;;5.85;1.98;;;;;;;;;;10319596;28;20034;-61
2024/02/26 11:42:15;;;;;;;2.60;2.10;;;;;;;;;;10318670;28;20066;-61
2024/02/26 11:47:21;;;;;;;2.78;2.08;;;;;;;;;;10319374;28;20030;-61
2024/02/26 11:52:21;;;;;;;3.58;1.92;;;;;;;;;;10319302;28;20053;-62
2024/02/26 11:57:39;;;;;;;4.68;2.50;;;;;;;;;;10340988;28;20042;-61
2024/02/26 12:02:43;;;;;;;3.22;2.00;;;;;;;;;;10368451;28;20045;-61
2024/02/26 12:07:55;;;;;;;7.18;2.30;;;;;;;;;;10372621;28;20034;-61
2024/02/26 12:13:02;;;;;;;5.47;2.13;;;;;;;;;;10373087;28;20068;-61
2024/02/26 12:18:06;;;;;;;5.67;2.30;;;;;;;;;;10372680;28;20029;-62
2024/02/26 12:23:06;;;;;;;5.97;2.25;;;;;;;;;;10372221;28;20131;-61
2024/02/26 12:28:07;;;;;;;4.82;2.03;;;;;;;;;;10372221;28;20152;-62
2024/02/26 12:33:08;;;;;;;2.92;1.90;;;;;;;;;;10371362;28;20022;-62
2024/02/26 12:38:09;;;;;;;5.65;2.15;;;;;;;;;;10371917;28;20037;-61
2024/02/26 12:43:12;;;;;;;3.38;2.08;;;;;;;;;;10369758;28;20370;-60
2024/02/26 12:48:14;;;;;;;2.80;1.98;;;;;;;;;;10371011;28;20504;-64
2024/02/26 12:53:14;;;;;;;2.83;2.08;;;;;;;;;;10371224;28;20026;-64
2024/02/26 12:58:15;;;;;;;2.90;2.13;;;;;;;;;;10370677;28;20033;-61
2024/02/26 13:03:16;;;;;;;3.38;2.35;;;;;;;;;;10370664;28;20053;-61
2024/02/26 13:08:20;;;;;;;3.67;2.30;;;;;;;;;;10369216;28;20435;-61
2024/02/26 13:13:22;;;;;;;2.00;1.80;;;;;;;;;;10369891;28;20026;-61
2024/02/26 13:18:30;;;;;;;5.65;1.90;;;;;;;;;;10369979;28;20029;-61
2024/02/26 13:23:31;;;;;;;2.17;1.90;;;;;;;;;;10370725;28;20029;-61
2024/02/26 13:28:32;;;;;;;4.47;1.95;;;;;;;;;;10370308;28;20022;-61
2024/02/26 13:33:33;;;;;;;2.33;2.00;;;;;;;;;;10369408;28;20034;-65
2024/02/26 13:38:34;;;;;;;2.70;2.00;;;;;;;;;;10368292;28;20467;-61
2024/02/26 13:43:35;;;;;;;2.20;1.95;;;;;;;;;;10369139;28;20026;-61
2024/02/26 13:48:35;;;;;;;3.20;1.83;;;;;;;;;;10368850;28;20029;-61
2024/02/26 13:53:36;;;;;;;2.85;1.80;;;;;;;;;;10368475;28;20181;-61
2024/02/26 13:58:37;;;;;;;7.25;2.22;;;;;;;;;;10368349;28;20076;-61
2024/02/26 14:03:37;;;;;;;2.45;1.80;;;;;;;;;;10366989;28;20046;-61
2024/02/26 14:08:38;;;;;;;3.72;1.95;;;;;;;;;;10366850;28;20029;-64
2024/02/26 14:13:38;;;;;;;3.45;2.10;;;;;;;;;;10367578;28;20080;-62
2024/02/26 14:18:39;;;;;;;3.35;1.73;;;;;;;;;;10368025;28;20101;-62
2024/02/26 14:23:40;;;;;;;5.30;2.38;;;;;;;;;;10366865;28;20030;-62
2024/02/26 14:28:40;;;;;;;6.15;2.20;;;;;;;;;;10367918;28;20030;-60
2024/02/26 14:33:41;;;;;;;3.83;1.98;;;;;;;;;;10367715;28;20034;-64
2024/02/26 14:38:41;;;;;;;4.47;1.95;;;;;;;;;;10367476;28;20420;-63
2024/02/26 14:43:42;;;;;;;10.77;2.67;;;;;;;;;;10366262;28;20405;-62
2024/02/26 14:48:43;;;;;;;7.28;2.72;;;;;;;;;;10364039;28;20034;-61
2024/02/26 14:53:44;;;;;;;4.50;2.50;;;;;;;;;;10367068;28;20080;-62
2024/02/26 14:58:45;;;;;;;5.28;2.20;;;;;;;;;;10366956;28;20084;-62
2024/02/26 15:03:46;;;;;;;3.53;2.30;;;;;;;;;;10366086;28;20497;-61
2024/02/26 15:08:47;;;;;;;4.32;1.92;;;;;;;;;;10366008;28;20038;-62
2024/02/26 15:13:48;;;;;;;4.80;2.10;;;;;;;;;;10366513;28;20081;-63
2024/02/26 15:18:48;;;;;;;5.97;2.20;;;;;;;;;;10366005;28;20500;-61
2024/02/26 15:23:50;;;;;;;4.38;2.45;;;;;;;;;;10365032;28;20030;-61
2024/02/26 15:28:50;;;;;;;2.58;1.88;;;;;;;;;;10365880;28;20045;-61
2024/02/26 15:33:51;;;;;;;3.20;2.33;;;;;;;;;;10366798;28;20096;-64
2024/02/26 15:38:51;;;;;;;2.85;2.20;;;;;;;;;;10373003;28;20029;-61
2024/02/26 15:43:52;;;;;;;2.33;1.70;;;;;;;;;;10374175;28;20042;-61
2024/02/26 15:48:53;;;;;;;4.78;2.28;;;;;;;;;;10372763;28;20052;-61
2024/02/26 15:53:53;;;;;;;4.03;2.22;;;;;;;;;;10373862;28;20037;-61
2024/02/26 15:58:54;;;;;;;4.65;1.95;;;;;;;;;;10372607;28;20022;-62
2024/02/26 16:03:55;;;;;;;2.22;1.80;;;;;;;;;;10373153;28;20213;-61
2024/02/26 16:08:56;;;;;;;5.25;2.08;;;;;;;;;;10372939;28;20034;-62
2024/02/26 16:14:35;;;;;;;2.20;1.70;;;;;;;;;;10372336;28;20033;-61
2024/02/26 16:19:37;;;;;;;3.58;2.10;;;;;;;;;;10372311;28;20022;-61
2024/02/26 16:24:37;;;;;;;4.70;2.10;;;;;;;;;;10372801;28;20524;-60
2024/02/26 16:29:38;;;;;;;2.90;1.90;;;;;;;;;;10372181;28;20026;-61
2024/02/26 16:34:38;;;;;;;3.38;2.47;;;;;;;;;;10371741;28;20022;-61
2024/02/26 16:39:41;;;;;;;3.45;2.17;;;;;;;;;;10371052;28;20041;-62
2024/02/26 16:44:41;;;;;;;2.92;1.85;;;;;;;;;;10370356;28;20030;-61
2024/02/26 16:49:42;;;;;;;4.43;2.20;;;;;;;;;;10368952;28;20389;-62
2024/02/26 16:54:43;;;;;;;9.68;3.88;;;;;;;;;;10370489;28;20481;-61
2024/02/26 16:59:43;;;;;;;2.63;1.98;;;;;;;;;;10370264;28;20077;-61
2024/02/26 17:04:44;;;;;;;6.80;1.92;;;;;;;;;;10369963;28;20037;-62
2024/02/26 17:09:44;;;;;;;2.97;1.83;;;;;;;;;;10370476;28;20041;-61
2024/02/26 17:14:48;;;;;;;2.70;1.75;;;;;;;;;;10369114;28;20033;-58
2024/02/26 17:19:48;;;;;;;2.60;2.08;;;;;;;;;;10370307;28;20033;-58
2024/02/26 17:24:49;;;;;;;3.67;2.13;;;;;;;;;;10370146;28;20418;-59
2024/02/26 17:29:50;;;;;;;3.67;2.00;;;;;;;;;;10368832;28;20355;-59
2024/02/26 17:34:50;;;;;;;3.90;2.10;;;;;;;;;;10369709;28;20033;-60
2024/02/26 17:39:51;;;;;;;2.38;1.70;;;;;;;;;;10368160;28;20021;-59
2024/02/26 17:44:52;;;;;;;2.10;1.65;;;;;;;;;;10368840;28;20033;-61
2024/02/26 17:49:53;;;;;;;2.90;1.88;;;;;;;;;;10369369;28;20041;-59
2024/02/26 17:54:54;;;;;;;2.80;1.98;;;;;;;;;;10368159;28;20473;-59
2024/02/26 17:59:54;;;;;;;1.85;1.50;;;;;;;;;;10367500;28;20069;-59
2024/02/26 18:04:55;;;;;;;2.38;1.90;;;;;;;;;;10367172;28;20520;-60
2024/02/26 18:09:56;;;;;;;6.75;2.25;;;;;;;;;;10367481;28;20025;-59
2024/02/26 18:14:57;;;;;;;6.65;1.90;;;;;;;;;;10368933;28;20034;-59
2024/02/26 18:19:57;;;;;;;4.40;2.15;;;;;;;;;;10367225;28;20030;-60
2024/02/26 18:24:58;;;;;;;2.70;1.80;;;;;;;;;;10366781;28;20033;-60
2024/02/26 18:29:58;;;;;;;2.67;1.73;;;;;;;;;;10364805;28;20049;-59
2024/02/26 18:34:59;;;;;;;3.55;1.90;;;;;;;;;;10365761;28;20041;-60
2024/02/26 18:40:00;;;;;;;2.17;1.90;;;;;;;;;;10367229;28;20038;-58
2024/02/26 18:45:01;;;;;;;1.85;1.70;;;;;;;;;;10366791;28;20038;-59
2024/02/26 18:50:02;;;;;;;1.83;1.33;;;;;;;;;;10367088;28;20037;-60
2024/02/26 18:55:04;;;;;;;3.47;1.75;;;;;;;;;;10366456;28;20125;-60
2024/02/26 19:00:06;;;;;;;2.08;1.55;;;;;;;;;;10363372;28;20026;-60
2024/02/26 19:05:07;;;;;;;10.80;1.88;;;;;;;;;;10363220;28;20057;-59
2024/02/26 19:10:08;;;;;;;4.00;2.05;;;;;;;;;;10365062;28;20057;-59
2024/02/26 19:15:10;;;;;;;5.05;1.38;;;;;;;;;;10372334;28;20643;-60
2024/02/26 19:20:11;;;;;;;4.43;1.77;;;;;;;;;;10373770;28;20040;-59
2024/02/26 19:25:12;;;;;;;2.53;1.55;;;;;;;;;;10374384;28;20474;-60
2024/02/26 19:30:13;;;;;;;10.55;2.00;;;;;;;;;;10374556;28;20040;-62
2024/02/26 19:35:13;;;;;;;3.33;1.90;;;;;;;;;;10374895;28;20384;-61
2024/02/26 19:40:14;;;;;;;2.47;1.80;;;;;;;;;;10374275;28;20034;-61
2024/02/26 19:45:15;;;;;;;3.83;1.88;;;;;;;;;;10371682;28;20041;-61
2024/02/26 19:50:16;;;;;;;2.50;1.42;;;;;;;;;;10371724;28;20026;-61
2024/02/26 19:55:17;;;;;;;4.65;1.77;;;;;;;;;;10371812;28;20524;-61
2024/02/26 20:00:17;;;;;;;3.75;1.42;;;;;;;;;;10370969;28;20286;-61
2024/02/26 20:05:18;;;;;;;4.78;2.33;;;;;;;;;;10372598;28;20061;-61
2024/02/26 20:10:19;;;;;;;2.90;1.70;;;;;;;;;;10372324;28;20034;-61
2024/02/26 20:15:21;;;;;;;2.67;1.58;;;;;;;;;;10372568;28;20038;-61
2024/02/26 20:20:26;;;;;;;3.85;1.70;;;;;;;;;;10373031;28;20057;-61
2024/02/26 20:25:27;;;;;;;3.10;1.83;;;;;;;;;;10370959;28;20026;-61
2024/02/26 20:30:29;;;;;;;3.90;1.80;;;;;;;;;;10372000;28;20112;-62
2024/02/26 20:35:31;;;;;;;3.90;1.60;;;;;;;;;;10371532;28;20053;-61
2024/02/26 20:40:32;;;;;;;3.97;1.70;;;;;;;;;;10371691;28;20091;-61
2024/02/26 20:45:33;;;;;;;5.20;2.30;;;;;;;;;;10370751;28;20092;-61
2024/02/26 20:50:33;;;;;;;4.80;1.90;;;;;;;;;;10371708;28;20034;-61
2024/02/26 20:55:39;;;;;;;6.28;1.83;;;;;;;;;;10370270;28;20029;-60
2024/02/26 21:00:42;;;;;;;20.00;3.00;;;;;;;;;;10370949;28;20040;-60
2024/02/26 21:05:42;;;;;;;13.00;2.42;;;;;;;;;;10369826;28;20050;-62
2024/02/26 21:10:43;;;;;;;8.48;2.38;;;;;;;;;;10370494;28;20034;-60
2024/02/26 21:15:45;;;;;;;11.48;2.20;;;;;;;;;;10370650;28;20038;-61
2024/02/26 21:20:46;;;;;;;7.10;2.03;;;;;;;;;;10367079;28;20037;-61
2024/02/26 21:25:47;;;;;;;10.60;2.13;;;;;;;;;;10368200;28;20125;-61
2024/02/26 21:30:47;;;;;;;13.52;2.40;;;;;;;;;;10369156;28;20080;-60
2024/02/26 21:35:48;;;;;;;3.15;1.88;;;;;;;;;;10368949;28;20053;-61
2024/02/26 21:40:49;;;;;;;6.57;2.17;;;;;;;;;;10369413;28;20180;-59
2024/02/26 21:45:49;;;;;;;5.68;2.33;;;;;;;;;;10368374;28;20437;-59
2024/02/26 21:50:54;;;;;;;3.78;2.00;;;;;;;;;;10368401;28;20026;-60
2024/02/26 21:55:54;;;;;;;5.03;1.90;;;;;;;;;;10369249;28;20032;-60
2024/02/26 22:00:55;;;;;;;4.25;1.70;;;;;;;;;;10368286;28;20033;-59
2024/02/26 22:05:56;;;;;;;5.93;1.80;;;;;;;;;;10366943;28;20071;-61
2024/02/26 22:10:57;;;;;;;8.82;2.42;;;;;;;;;;10362258;28;20025;-64
2024/02/26 22:15:57;;;;;;;10.90;2.05;;;;;;;;;;10367953;28;20030;-63
2024/02/26 22:20:58;;;;;;;6.97;1.85;;;;;;;;;;10367340;28;20026;-61
2024/02/26 22:25:59;;;;;;;5.93;1.60;;;;;;;;;;10367522;28;20030;-62
2024/02/26 22:30:59;;;;;;;4.80;2.05;;;;;;;;;;10368367;28;20029;-61
2024/02/26 22:36:00;;;;;;;5.80;2.05;;;;;;;;;;10367699;28;20025;-60
2024/02/26 22:41:01;;;;;;;3.60;1.52;;;;;;;;;;10366950;28;20061;-60
2024/02/26 22:46:02;;;;;;;4.90;1.80;;;;;;;;;;10366090;28;20038;-61
2024/02/26 22:51:02;;;;;;;2.70;1.65;;;;;;;;;;10366549;28;20182;-62
2024/02/26 22:56:03;;;;;;;4.82;1.50;;;;;;;;;;10367425;28;20034;-61
2024/02/26 23:01:04;;;;;;;2.47;1.65;;;;;;;;;;10366139;28;20068;-61
2024/02/26 23:06:05;;;;;;;6.50;1.48;;;;;;;;;;10366218;28;20046;-60
2024/02/26 23:11:06;;;;;;;6.82;2.10;;;;;;;;;;10366410;28;20261;-61
2024/02/26 23:16:06;;;;;;;4.32;1.30;;;;;;;;;;10364005;28;20246;-63
2024/02/26 23:21:07;;;;;;;1.98;1.50;;;;;;;;;;10366175;28;20092;-61
2024/02/26 23:26:08;;;;;;;1.52;1.20;;;;;;;;;;10366643;28;20516;-61
2024/02/26 23:31:08;;;;;;;1.60;1.20;;;;;;;;;;10366030;28;20025;-61
2024/02/26 23:36:09;;;;;;;3.60;1.50;;;;;;;;;;10366929;28;20025;-61
2024/02/26 23:41:10;;;;;;;9.65;1.10;;;;;;;;;;10365674;28;20036;-60
2024/02/26 23:46:11;;;;;;;5.97;1.33;;;;;;;;;;10366327;28;20049;-61
2024/02/26 23:51:12;;;;;;;2.72;1.20;;;;;;;;;;10365995;28;20155;-60
2024/02/26 23:56:12;;;;;;;1.30;1.20;;;;;;;;;;10366711;28;20030;-63
